Brazoria County Airport
KLBX : rendu visible

Aérodrome :











RETROUVEZ-NOUS SUR...

 
LOGIN :

S'inscrire | Disclaimer

   EN    FR    IT 

 









Légende :    VFR   VFR Marginal   IFR   IFR Intensif   IFR Très Intensif
Visi : 
Plafond : 
>= 8 km
>= 3000ft
5 à 8 km
1000 à 3000 ft
1500m à 5 km
500 à 1000 ft
800 à 1500m
200 à 500 ft
< 800m
< 200 ft
Symboles :   Orages  Brouillard  Fortes neiges  Fortes précipitations  Vent > 20 kt






- Altitude de l'aérodrome : 25 ft


KLBX - Brazoria County

DERNIER METAR :
  • 100706Z AUTO 00000KT 7SM -RA BKN011 BKN041 OVC048 22/21 A2989 RMK AO2 P0000 T02220211

METARs EXPIRÉS :
  • 100653Z AUTO 00000KT 8SM -RA FEW005 BKN025 OVC050 22/21 A2989 RMK AO2 RAE09B17 CIG 020V034 SLP121 P0013 T02170211
  • 100643Z AUTO 18005KT 6SM -RA BR SCT008 BKN015 OVC041 22/21 A2989 RMK AO2 RAE09B17 P0013 T02170206
  • 100628Z AUTO 29003KT 2 1/2SM -RA BR SCT007 BKN017 OVC040 21/21 A2989 RMK AO2 RAE09B17 CIG 012V025 P0011 T02110206
  • 100626Z AUTO 27003KT 5SM -RA BR BKN011 BKN021 OVC040 21/21 A2989 RMK AO2 RAE09B17 CIG 003V018 P0006 T02110206
  • 100612Z AUTO 00000KT 7SM BKN013 BKN028 OVC047 21/21 A2989 RMK AO2 RAE09 P0005 T02110206
  • 100602Z AUTO 00000KT 3SM -RA BR SCT012 BKN017 OVC040 21/20 A2989 RMK AO2 P0005 T02110200
  • 100553Z AUTO 00000KT 3SM RA BR FEW013 BKN030 OVC047 21/21 A2989 RMK AO2 RAB36 SLP121 P0005 60005 T02110206 10233 20206 402780178 50007
  • 100453Z AUTO 00000KT 6SM BR FEW042 OVC055 21/20 A2989 RMK AO2 SLP121 T02060200

TAF KLBX
Valide du 10 à 06h jusqu'au 11 à 06h UTC


100543Z 1006/1106 00000KT 6SM BR VCSH FEW040 OVC060
TEMPO 1006/1010 3SM -SHRA BR SCT010 OVC025
FM101000 36013G23KT 5SM -TSRA OVC011CB
FM101400 36020G31KT 4SM -SHRA BR OVC009
FM102300 36018G27KT P6SM -RA OVC011
FM110300 01010G16KT P6SM SCT020 OVC050



MET'MAP, la Météo Aéronautique d'un coup d'oeil ! - Copyright ORBIFLY Décembre 2007 - Disclaimer

ORBIFLY MET'MAP TEAM :

Programmation & Développement : Alexandra Zaïnal
Sur une idée originale de : Baudouin d'Aumeries
Assistance à la programmation : Marc-Olivier Méhu
Soutien technique & logistique : Manuel Goepfert

Contact : metmap@orbifly.com




SOURCES & CREDITS :

   NOAA       Earth
Advisory